Time;durP1;ratioP1;P1;durP2;ratioP2;P2;SDS_P1;SDS_P2;PMS_P1;PMS_P2;Temp;Humidity;BMP_temperature;BMP_pressure;BME280_temperature;BME280_humidity;BME280_pressure;Samples;Min_cycle;Max_cycle;Signal;HPM_P1;HPM_P2
2022/05/23 00:02:08;;;;;;;6.68;2.20;;;15.80;99.90;;;;;;5048376;28;20080;-59
2022/05/23 00:04:35;;;;;;;9.90;2.25;;;15.70;99.90;;;;;;5080636;28;20174;-59
2022/05/23 00:07:02;;;;;;;5.20;2.17;;;15.70;99.90;;;;;;5045985;28;20174;-58
2022/05/23 00:09:29;;;;;;;3.65;1.50;;;15.70;99.90;;;;;;5080892;28;20132;-59
2022/05/23 00:11:56;;;;;;;4.13;1.88;;;15.60;99.90;;;;;;5048081;28;20099;-60
2022/05/23 00:14:22;;;;;;;6.05;2.20;;;15.70;99.90;;;;;;5048661;28;20102;-59
2022/05/23 00:16:49;;;;;;;7.28;1.90;;;15.60;99.90;;;;;;5047935;28;20136;-58
2022/05/23 00:19:16;;;;;;;6.70;1.75;;;15.60;99.90;;;;;;5080635;28;20488;-59
2022/05/23 00:21:45;;;;;;;9.68;2.45;;;15.70;99.90;;;;;;5047933;28;20099;-59
2022/05/23 00:24:15;;;;;;;6.20;1.85;;;15.70;99.90;;;;;;5048130;28;20427;-60
2022/05/23 00:26:43;;;;;;;8.18;2.75;;;15.70;99.90;;;;;;5048041;28;20216;-58
2022/05/23 00:29:10;;;;;;;3.50;1.60;;;15.60;99.90;;;;;;5044531;28;20072;-59
2022/05/23 00:31:36;;;;;;;7.00;2.25;;;15.50;99.90;;;;;;4726113;28;10000662;-58
2022/05/23 00:36:48;;;;;;;5.05;2.13;;;15.50;99.90;;;;;;5047419;28;20051;-59
2022/05/23 00:39:15;;;;;;;8.07;2.35;;;15.50;99.90;;;;;;5048172;28;20126;-58
2022/05/23 00:44:33;;;;;;;6.15;1.85;;;15.50;99.90;;;;;;5048042;28;20576;-58
2022/05/23 00:47:13;;;;;;;9.57;2.05;;;15.70;99.90;;;;;;5047516;28;20084;-57
2022/05/23 00:49:41;;;;;;;12.48;2.75;;;15.60;99.90;;;;;;5077527;28;20139;-58
2022/05/23 00:52:10;;;;;;;4.00;1.58;;;15.60;99.90;;;;;;5061998;28;20057;-58
2022/05/23 00:54:42;;;;;;;7.05;2.05;;;15.60;99.90;;;;;;5062772;28;20080;-58
2022/05/23 00:57:14;;;;;;;5.05;2.05;;;15.60;99.90;;;;;;5062608;28;20087;-59
2022/05/23 00:59:41;;;;;;;8.90;2.75;;;15.60;99.90;;;;;;5078379;28;20174;-57
2022/05/23 01:02:09;;;;;;;6.97;1.83;;;15.60;99.90;;;;;;5046890;28;20124;-57
2022/05/23 01:04:37;;;;;;;5.45;2.55;;;15.50;99.90;;;;;;5079289;28;20045;-58
2022/05/23 01:07:04;;;;;;;4.85;2.10;;;15.50;99.90;;;;;;5046764;28;20057;-58
2022/05/23 01:09:31;;;;;;;4.28;2.53;;;15.50;99.90;;;;;;5047572;28;20049;-58
2022/05/23 01:11:58;;;;;;;3.78;2.03;;;15.60;99.90;;;;;;5062297;28;20128;-58
2022/05/23 01:14:26;;;;;;;3.75;1.85;;;15.50;99.90;;;;;;5047278;28;20075;-57
2022/05/23 01:16:52;;;;;;;4.05;2.10;;;15.50;99.90;;;;;;5046857;28;20503;-57
2022/05/23 01:19:19;;;;;;;6.20;2.10;;;15.40;99.90;;;;;;5047460;28;20048;-57
2022/05/23 01:21:55;;;;;;;7.95;2.45;;;15.50;99.90;;;;;;5078989;28;20102;-59
2022/05/23 01:25:01;;;;;;;12.20;2.25;;;15.50;99.90;;;;;;5061864;28;20123;-58
2022/05/23 01:27:28;;;;;;;7.30;2.17;;;15.40;99.90;;;;;;5045814;28;20511;-59
2022/05/23 01:29:55;;;;;;;7.20;2.08;;;15.40;99.90;;;;;;5062156;28;20118;-58
2022/05/23 01:32:22;;;;;;;4.63;1.95;;;15.40;99.90;;;;;;5046937;28;20076;-57
2022/05/23 01:34:50;;;;;;;4.90;1.70;;;15.40;99.90;;;;;;5046696;28;20045;-59
2022/05/23 01:37:17;;;;;;;7.10;1.95;;;15.40;99.90;;;;;;5047090;28;20084;-58
2022/05/23 01:39:44;;;;;;;7.22;2.13;;;15.40;99.90;;;;;;5047123;28;20076;-55
2022/05/23 01:42:11;;;;;;;5.00;1.65;;;15.30;99.90;;;;;;5046799;28;20052;-58
2022/05/23 01:44:38;;;;;;;6.85;2.20;;;15.30;99.90;;;;;;5046352;28;20092;-57
2022/05/23 01:47:09;;;;;;;8.55;2.08;;;15.20;99.90;;;;;;5046830;28;20084;-57
2022/05/23 01:49:36;;;;;;;5.13;1.95;;;15.20;99.90;;;;;;5078174;28;20081;-58
2022/05/23 01:52:03;;;;;;;9.05;1.85;;;15.20;99.90;;;;;;5046515;28;20140;-58
2022/05/23 01:54:30;;;;;;;9.95;2.33;;;15.30;99.90;;;;;;5046606;28;20045;-58
2022/05/23 01:56:57;;;;;;;6.82;2.13;;;15.30;99.90;;;;;;5046675;28;20110;-59
2022/05/23 02:02:09;;;;;;;10.10;2.40;;;15.20;99.90;;;;;;5046792;28;20108;-59
2022/05/23 02:04:36;;;;;;;7.90;2.45;;;15.20;99.90;;;;;;5046585;28;20095;-58
2022/05/23 02:07:05;;;;;;;7.07;2.22;;;15.10;99.90;;;;;;5046222;28;20089;-57
2022/05/23 02:09:32;;;;;;;6.25;2.50;;;15.10;99.90;;;;;;5046482;28;20059;-59
2022/05/23 02:11:59;;;;;;;9.15;3.92;;;15.10;99.90;;;;;;5046543;28;20061;-59
2022/05/23 02:14:26;;;;;;;9.90;2.88;;;15.10;99.90;;;;;;5046362;28;20134;-58
2022/05/23 02:16:53;;;;;;;4.22;2.03;;;15.20;99.90;;;;;;5046253;28;20559;-59
2022/05/23 02:19:19;;;;;;;11.55;2.38;;;15.20;99.90;;;;;;5046580;28;20163;-59
2022/05/23 02:21:46;;;;;;;5.72;2.35;;;15.20;99.90;;;;;;5046285;28;20127;-58
2022/05/23 02:24:13;;;;;;;3.72;2.15;;;15.20;99.90;;;;;;5078113;28;20506;-59
2022/05/23 02:26:40;;;;;;;7.20;2.05;;;15.20;99.90;;;;;;5046536;28;20081;-59
2022/05/23 02:29:08;;;;;;;3.88;2.53;;;15.20;99.90;;;;;;5046114;28;20077;-57
2022/05/23 02:31:35;;;;;;;6.50;1.75;;;15.20;99.90;;;;;;5045149;28;20075;-57
2022/05/23 02:34:01;;;;;;;4.90;1.85;;;15.20;99.90;;;;;;5045964;28;20137;-59
2022/05/23 02:36:28;;;;;;;5.82;2.00;;;15.20;99.90;;;;;;5077957;28;20088;-58
2022/05/23 02:38:55;;;;;;;5.53;2.05;;;15.20;99.90;;;;;;5046361;28;20080;-58
2022/05/23 02:41:22;;;;;;;5.50;2.30;;;15.10;99.90;;;;;;5046206;28;20143;-60
2022/05/23 02:43:49;;;;;;;4.72;1.80;;;15.10;99.90;;;;;;5046059;28;20591;-58
2022/05/23 02:46:16;;;;;;;9.25;2.30;;;15.10;99.90;;;;;;5078146;28;20099;-58
2022/05/23 02:48:47;;;;;;;6.45;2.13;;;15.10;99.90;;;;;;5044878;28;20049;-57
2022/05/23 02:51:14;;;;;;;7.18;2.42;;;15.10;99.90;;;;;;5045924;28;20576;-57
2022/05/23 02:53:41;;;;;;;8.55;2.13;;;15.00;99.90;;;;;;5046203;28;20158;-56
2022/05/23 02:56:07;;;;;;;7.43;2.25;;;15.00;99.90;;;;;;5045715;28;20167;-57
2022/05/23 02:58:34;;;;;;;7.57;2.50;;;14.90;99.90;;;;;;5049371;28;20304;-59
2022/05/23 03:01:01;;;;;;;4.97;1.83;;;15.00;99.90;;;;;;5049339;28;20057;-57
2022/05/23 03:03:27;;;;;;;5.43;2.13;;;14.90;99.90;;;;;;5049915;28;20045;-58
2022/05/23 03:05:55;;;;;;;5.65;1.80;;;14.90;99.90;;;;;;5049090;28;20298;-56
2022/05/23 03:08:23;;;;;;;4.95;1.90;;;14.90;99.90;;;;;;5049906;28;20063;-58
2022/05/23 03:10:51;;;;;;;6.25;1.50;;;15.00;99.90;;;;;;5049282;28;20083;-57
2022/05/23 03:13:18;;;;;;;6.78;1.95;;;15.10;99.90;;;;;;5049551;28;20041;-57
2022/05/23 03:15:45;;;;;;;4.78;1.67;;;15.10;99.90;;;;;;5049580;28;20558;-58
2022/05/23 03:18:18;;;;;;;7.50;2.05;;;15.10;99.90;;;;;;5049253;28;20075;-58
2022/05/23 03:20:45;;;;;;;5.70;1.58;;;15.20;99.90;;;;;;5049311;28;20076;-58
2022/05/23 03:28:43;;;;;;;3.40;1.80;;;15.00;99.90;;;;;;5049435;28;20036;-57
2022/05/23 03:31:10;;;;;;;7.40;2.40;;;15.00;99.90;;;;;;5049317;28;20123;-57
2022/05/23 03:33:37;;;;;;;6.15;1.60;;;15.00;99.90;;;;;;5049126;28;20243;-55
2022/05/23 03:36:04;;;;;;;4.40;1.50;;;15.00;99.90;;;;;;5048963;28;20143;-57
2022/05/23 03:38:31;;;;;;;5.60;1.65;;;15.00;99.90;;;;;;5048809;28;20045;-57
2022/05/23 03:41:05;;;;;;;5.72;1.52;;;15.00;99.90;;;;;;5048992;28;20132;-58
2022/05/23 03:43:32;;;;;;;3.03;1.63;;;15.00;99.90;;;;;;5048830;28;20041;-57
2022/05/23 03:46:06;;;;;;;2.50;1.30;;;15.00;99.90;;;;;;5048854;28;20053;-58
2022/05/23 03:48:33;;;;;;;7.10;1.45;;;14.90;99.90;;;;;;5048927;28;20522;-59
2022/05/23 03:51:00;;;;;;;5.80;1.95;;;14.90;99.90;;;;;;5048852;28;20086;-58
2022/05/23 03:53:27;;;;;;;8.50;1.65;;;15.00;99.90;;;;;;5048520;28;20068;-59
2022/05/23 03:55:55;;;;;;;5.50;2.03;;;14.90;99.90;;;;;;5048746;28;20099;-58
2022/05/23 03:58:22;;;;;;;9.73;3.60;;;14.90;99.90;;;;;;5048607;28;20132;-58
2022/05/23 04:00:49;;;;;;;7.95;2.00;;;14.90;99.90;;;;;;5047461;28;20126;-56
2022/05/23 04:03:19;;;;;;;6.60;1.63;;;14.90;99.90;;;;;;5042327;28;20044;-57
2022/05/23 04:05:46;;;;;;;5.25;1.88;;;14.90;99.90;;;;;;5037673;28;20058;-58
2022/05/23 04:08:13;;;;;;;8.75;2.95;;;14.90;99.90;;;;;;5036651;28;20132;-59
2022/05/23 04:10:40;;;;;;;2.67;1.13;;;14.90;99.90;;;;;;5048752;28;20504;-57
2022/05/23 04:13:07;;;;;;;4.88;1.33;;;15.00;99.90;;;;;;5048124;28;20511;-60
2022/05/23 04:15:34;;;;;;;4.43;1.73;;;15.00;99.90;;;;;;5048482;28;20041;-59
2022/05/23 04:18:01;;;;;;;5.40;1.40;;;15.10;99.90;;;;;;5047890;28;20079;-58
2022/05/23 04:20:27;;;;;;;5.68;1.50;;;15.10;99.90;;;;;;5080149;28;20064;-57
2022/05/23 04:22:54;;;;;;;5.57;1.52;;;15.10;99.90;;;;;;5048263;28;20108;-58
2022/05/23 04:25:21;;;;;;;5.38;1.52;;;15.20;99.90;;;;;;5048380;28;20104;-59
2022/05/23 04:27:48;;;;;;;6.05;1.52;;;15.20;99.90;;;;;;5048376;28;20087;-58
2022/05/23 04:30:14;;;;;;;11.15;2.03;;;15.20;99.90;;;;;;5079899;28;20136;-57
2022/05/23 04:35:27;;;;;;;4.80;1.23;;;15.30;99.90;;;;;;5047789;28;20072;-58
2022/05/23 04:37:54;;;;;;;5.68;1.40;;;15.30;99.90;;;;;;5048063;28;20099;-58
2022/05/23 04:40:22;;;;;;;3.97;1.30;;;15.30;99.90;;;;;;5079733;28;20076;-58
2022/05/23 04:42:49;;;;;;;6.82;1.65;;;15.30;99.90;;;;;;5047893;28;20507;-58
2022/05/23 04:45:16;;;;;;;5.85;2.13;;;15.30;99.90;;;;;;5047928;28;20047;-58
2022/05/23 04:50:28;;;;;;;12.10;2.45;;;15.40;99.90;;;;;;5047655;28;20136;-57
2022/05/23 04:52:57;;;;;;;4.65;1.52;;;15.40;99.90;;;;;;5047662;28;20076;-63
2022/05/23 04:55:24;;;;;;;6.57;1.60;;;15.40;99.90;;;;;;5047372;28;20044;-58
2022/05/23 04:57:52;;;;;;;3.22;1.30;;;15.40;99.90;;;;;;5047638;28;20143;-58
2022/05/23 05:00:19;;;;;;;5.03;1.55;;;15.40;99.90;;;;;;5047541;28;20045;-57
2022/05/23 05:02:47;;;;;;;2.95;1.60;;;15.40;99.90;;;;;;5047509;28;20135;-58
2022/05/23 05:05:14;;;;;;;4.47;1.50;;;15.40;99.90;;;;;;5047073;28;20137;-58
2022/05/23 05:07:42;;;;;;;5.38;1.77;;;15.40;99.90;;;;;;5047621;28;20516;-58
2022/05/23 05:10:09;;;;;;;5.07;1.58;;;15.40;99.90;;;;;;5047033;28;20131;-58
2022/05/23 05:12:36;;;;;;;8.85;1.88;;;15.50;99.90;;;;;;5036675;28;20084;-58
2022/05/23 05:15:03;;;;;;;4.20;1.52;;;15.50;99.90;;;;;;5047034;28;20092;-58
2022/05/23 05:17:30;;;;;;;5.20;1.65;;;15.50;99.90;;;;;;5047299;28;20049;-58
2022/05/23 05:19:57;;;;;;;5.70;1.42;;;15.40;99.90;;;;;;5046401;28;20076;-61
2022/05/23 05:22:24;;;;;;;5.72;1.58;;;15.40;99.90;;;;;;5046894;28;20047;-58
2022/05/23 05:24:50;;;;;;;10.30;1.17;;;15.40;99.90;;;;;;5047114;28;20167;-59
2022/05/23 05:27:17;;;;;;;4.30;1.15;;;15.30;99.90;;;;;;5047220;28;20143;-58
2022/05/23 05:29:44;;;;;;;9.85;1.40;;;15.30;99.90;;;;;;5047472;28;20056;-57
2022/05/23 05:32:16;;;;;;;3.78;1.50;;;15.30;99.90;;;;;;5046491;28;20526;-58
2022/05/23 05:34:52;;;;;;;5.75;2.08;;;15.30;99.90;;;;;;5058046;28;20049;-57
2022/05/23 05:37:24;;;;;;;6.22;1.40;;;15.40;99.90;;;;;;5044396;28;20139;-58
2022/05/23 05:39:51;;;;;;;4.53;1.75;;;15.50;99.90;;;;;;5026772;28;20094;-58
2022/05/23 05:42:20;;;;;;;8.73;1.40;;;15.50;99.90;;;;;;5041766;28;20055;-57
2022/05/23 05:44:58;;;;;;;7.32;1.33;;;15.60;99.90;;;;;;5047083;28;20136;-58
2022/05/23 05:47:25;;;;;;;5.90;1.67;;;15.60;99.90;;;;;;5078495;28;20557;-57
2022/05/23 05:49:54;;;;;;;6.97;1.30;;;15.60;99.90;;;;;;5046624;28;20084;-57
2022/05/23 05:52:21;;;;;;;6.40;1.70;;;15.60;99.90;;;;;;5077978;28;20330;-55
2022/05/23 05:54:48;;;;;;;3.20;1.52;;;15.60;99.90;;;;;;5078470;28;20056;-58
2022/05/23 05:57:15;;;;;;;4.05;1.23;;;15.50;99.90;;;;;;5045852;28;20140;-57
2022/05/23 05:59:42;;;;;;;12.48;2.00;;;15.50;99.90;;;;;;5046917;28;20045;-54
2022/05/23 06:02:09;;;;;;;5.50;1.45;;;15.50;99.90;;;;;;5045901;28;20083;-56
2022/05/23 06:04:35;;;;;;;6.55;1.30;;;15.50;99.90;;;;;;5046653;28;20401;-57
2022/05/23 06:12:34;;;;;;;12.30;2.10;;;15.30;99.90;;;;;;5026083;28;20084;-58
2022/05/23 06:15:00;;;;;;;3.88;0.98;;;15.30;99.90;;;;;;5026111;28;20118;-56
2022/05/23 06:17:27;;;;;;;7.28;1.48;;;15.30;99.90;;;;;;5025974;28;20049;-55
2022/05/23 06:19:54;;;;;;;8.23;1.88;;;15.40;99.90;;;;;;5026116;28;20084;-56
2022/05/23 06:22:21;;;;;;;10.52;1.80;;;15.40;99.90;;;;;;5057773;28;20053;-57
2022/05/23 06:24:51;;;;;;;9.40;1.85;;;15.40;99.90;;;;;;5026111;28;20087;-56
2022/05/23 06:27:18;;;;;;;7.32;2.00;;;15.40;99.90;;;;;;5026633;28;20134;-60
2022/05/23 06:29:45;;;;;;;8.43;1.50;;;15.30;99.90;;;;;;5026177;28;20091;-57
2022/05/23 06:32:11;;;;;;;5.53;1.80;;;15.30;99.90;;;;;;5027351;28;20084;-55
2022/05/23 06:34:38;;;;;;;9.52;2.28;;;15.30;99.90;;;;;;5029934;28;20551;-58
2022/05/23 06:37:05;;;;;;;7.50;1.55;;;15.50;99.90;;;;;;5031663;28;20076;-60
2022/05/23 06:39:32;;;;;;;6.85;1.83;;;15.50;99.90;;;;;;5031640;28;20460;-58
2022/05/23 06:41:59;;;;;;;5.20;1.50;;;15.50;99.90;;;;;;5029472;28;20144;-58
2022/05/23 06:44:26;;;;;;;8.52;1.50;;;15.40;99.90;;;;;;5028095;28;20128;-56
2022/05/23 06:46:53;;;;;;;5.47;1.42;;;15.40;99.90;;;;;;5026802;28;20099;-58
2022/05/23 06:49:19;;;;;;;5.50;1.40;;;15.40;99.90;;;;;;5027153;28;20046;-57
2022/05/23 06:51:49;;;;;;;4.80;1.30;;;15.40;99.90;;;;;;5026819;28;20087;-58
2022/05/23 06:54:17;;;;;;;5.25;1.70;;;15.30;99.90;;;;;;5026547;28;20456;-57
2022/05/23 06:56:44;;;;;;;5.53;1.90;;;15.40;99.90;;;;;;5024834;28;20041;-57
2022/05/23 06:59:11;;;;;;;2.45;2.00;;;15.30;99.90;;;;;;5026892;28;20049;-57
2022/05/23 07:01:38;;;;;;;3.00;1.52;;;15.30;99.90;;;;;;5028389;28;20160;-56
2022/05/23 07:04:05;;;;;;;22.92;2.67;;;15.40;99.90;;;;;;5026080;28;20103;-57
2022/05/23 07:12:26;;;;;;;5.07;2.20;;;15.60;99.90;;;;;;5025910;28;20060;-55
2022/05/23 07:14:56;;;;;;;4.22;2.20;;;15.60;99.90;;;;;;5040647;28;20557;-58
2022/05/23 07:17:24;;;;;;;5.00;3.17;;;15.50;99.90;;;;;;5049049;28;20107;-57
2022/05/23 07:19:51;;;;;;;5.82;2.15;;;15.60;99.90;;;;;;5048468;28;20148;-55
2022/05/23 07:22:18;;;;;;;7.40;3.60;;;15.60;99.90;;;;;;5047722;28;20139;-57
2022/05/23 07:24:44;;;;;;;6.72;3.83;;;15.70;99.90;;;;;;5047400;28;20157;-58
2022/05/23 07:27:12;;;;;;;6.82;3.17;;;15.80;99.90;;;;;;5048465;28;20049;-54
2022/05/23 07:29:39;;;;;;;5.53;2.38;;;15.90;99.90;;;;;;5048592;28;20041;-58
2022/05/23 07:32:08;;;;;;;4.88;2.17;;;15.90;99.90;;;;;;5048016;28;20111;-57
2022/05/23 07:34:35;;;;;;;12.25;3.80;;;15.90;99.90;;;;;;5048559;28;20132;-54
2022/05/23 07:37:02;;;;;;;7.05;2.95;;;16.00;99.90;;;;;;5048101;28;20441;-55
2022/05/23 07:39:29;;;;;;;10.20;2.53;;;16.20;99.90;;;;;;5048443;28;20103;-55
2022/05/23 07:41:55;;;;;;;8.02;2.83;;;16.30;99.90;;;;;;5047355;28;20049;-57
2022/05/23 07:44:22;;;;;;;14.63;3.10;;;16.40;99.90;;;;;;5079473;28;20674;-56
2022/05/23 07:46:50;;;;;;;11.65;5.07;;;16.40;99.90;;;;;;5047691;28;20198;-56
2022/05/23 07:49:17;;;;;;;8.80;2.60;;;16.30;99.90;;;;;;5079105;28;20360;-56
2022/05/23 07:51:44;;;;;;;7.85;2.78;;;16.40;99.90;;;;;;5078078;28;20190;-58
2022/05/23 08:02:35;;;;;;;5.15;2.45;;;16.40;99.90;;;;;;5009187;28;20109;-57
2022/05/23 08:05:02;;;;;;;5.72;2.65;;;16.40;99.90;;;;;;5062921;28;20139;-56
2022/05/23 08:07:29;;;;;;;9.07;3.20;;;16.40;99.90;;;;;;5029287;28;20782;-58
2022/05/23 08:10:00;;;;;;;8.23;2.95;;;16.50;99.90;;;;;;5027871;28;20103;-53
2022/05/23 08:12:28;;;;;;;4.60;2.63;;;16.50;99.90;;;;;;5027066;28;20085;-56
2022/05/23 08:14:54;;;;;;;11.77;3.45;;;16.50;99.90;;;;;;5026758;28;20088;-55
2022/05/23 08:17:22;;;;;;;5.15;3.03;;;16.70;99.90;;;;;;5026634;28;20595;-55
2022/05/23 08:19:49;;;;;;;7.20;2.95;;;16.70;99.90;;;;;;5026802;28;20049;-57
2022/05/23 08:22:16;;;;;;;4.47;2.70;;;16.80;99.90;;;;;;5026804;28;20096;-56
2022/05/23 08:24:43;;;;;;;6.75;3.30;;;16.70;99.90;;;;;;5027156;28;20134;-57
2022/05/23 08:27:10;;;;;;;4.88;3.72;;;16.60;99.90;;;;;;5027064;28;20132;-54
2022/05/23 08:29:37;;;;;;;8.50;2.88;;;16.70;99.90;;;;;;5027845;28;20053;-56
2022/05/23 08:32:05;;;;;;;7.25;3.22;;;16.90;99.90;;;;;;5026683;28;20061;-56
2022/05/23 08:34:31;;;;;;;10.15;3.70;;;17.10;99.90;;;;;;5059507;28;20520;-54
2022/05/23 08:36:58;;;;;;;7.30;3.35;;;17.10;99.90;;;;;;5026610;28;20132;-58
2022/05/23 08:39:28;;;;;;;7.85;3.60;;;16.90;99.90;;;;;;5028019;28;20054;-57
2022/05/23 08:41:55;;;;;;;5.57;3.78;;;16.90;99.90;;;;;;5027547;28;20085;-56
2022/05/23 08:44:44;;;;;;;7.57;3.38;;;17.00;99.90;;;;;;5027583;28;20564;-53
2022/05/23 08:47:25;;;;;;;8.65;4.80;;;17.20;99.90;;;;;;5027269;28;20074;-56
2022/05/23 08:50:13;;;;;;;12.05;3.70;;;17.40;99.90;;;;;;5016933;28;20124;-54
2022/05/23 08:52:47;;;;;;;11.70;3.83;;;17.60;99.90;;;;;;5040589;28;20128;-56
2022/05/23 08:55:24;;;;;;;8.60;3.47;;;17.70;99.90;;;;;;5057876;28;20058;-56
2022/05/23 08:58:18;;;;;;;9.20;3.55;;;17.70;99.90;;;;;;5025605;28;20120;-56
2022/05/23 09:00:51;;;;;;;7.10;3.50;;;17.70;99.90;;;;;;5026441;28;20054;-57
2022/05/23 09:03:30;;;;;;;17.05;5.28;;;17.80;99.90;;;;;;5026984;28;20137;-56
2022/05/23 09:05:59;;;;;;;8.27;3.78;;;17.90;99.90;;;;;;5029197;28;20212;-56
2022/05/23 09:09:06;;;;;;;11.38;3.78;;;17.70;99.90;;;;;;5076657;28;20052;-55
2022/05/23 09:11:34;;;;;;;9.27;4.50;;;17.70;99.90;;;;;;5046936;28;20060;-54
2022/05/23 09:14:01;;;;;;;13.40;3.55;;;17.90;99.90;;;;;;5046365;28;20486;-56
2022/05/23 09:16:29;;;;;;;8.38;3.95;;;18.00;99.90;;;;;;5079057;28;20083;-54
2022/05/23 09:19:10;;;;;;;12.10;4.07;;;18.20;99.90;;;;;;5061291;28;20331;-58
2022/05/23 09:24:22;;;;;;;11.45;4.07;;;18.10;99.90;;;;;;5046060;28;20060;-57
2022/05/23 09:26:49;;;;;;;11.32;5.10;;;18.10;99.90;;;;;;5045985;28;20131;-57
2022/05/23 09:29:16;;;;;;;7.35;4.00;;;18.30;99.90;;;;;;5077648;28;20129;-58
2022/05/23 09:31:53;;;;;;;13.93;4.03;;;18.40;99.90;;;;;;5046863;28;20057;-57
2022/05/23 09:34:45;;;;;;;15.70;4.18;;;18.60;99.90;;;;;;5045961;28;20049;-58
2022/05/23 09:37:24;;;;;;;5.50;3.38;;;18.90;99.90;;;;;;5046074;28;20049;-58
2022/05/23 09:39:58;;;;;;;9.02;3.28;;;18.90;99.90;;;;;;5075366;28;20095;-55
2022/05/23 09:48:10;;;;;;;8.90;3.58;;;19.20;99.70;;;;;;5044635;28;20080;-57
2022/05/23 09:50:39;;;;;;;3.72;2.65;;;19.00;99.10;;;;;;5044432;28;20153;-55
2022/05/23 09:53:16;;;;;;;7.13;3.30;;;18.80;99.40;;;;;;5075955;28;20044;-56
2022/05/23 09:55:43;;;;;;;7.32;3.05;;;18.90;99.80;;;;;;5044922;28;20076;-57
2022/05/23 09:58:13;;;;;;;9.95;3.15;;;18.90;99.60;;;;;;5045938;28;20049;-56
2022/05/23 10:00:59;;;;;;;9.43;3.15;;;18.90;99.80;;;;;;5046134;28;20124;-56
2022/05/23 10:03:27;;;;;;;6.60;3.00;;;18.90;99.90;;;;;;5058885;28;20083;-56
2022/05/23 10:06:05;;;;;;;12.48;3.75;;;19.00;99.70;;;;;;5044044;28;20057;-56
2022/05/23 10:08:34;;;;;;;13.55;4.05;;;19.10;99.50;;;;;;5053014;28;20052;-56
2022/05/23 10:11:03;;;;;;;5.65;2.95;;;19.00;99.20;;;;;;5052483;28;20059;-57
2022/05/23 10:13:33;;;;;;;6.93;2.60;;;19.00;99.70;;;;;;5053113;28;20159;-57
2022/05/23 10:16:08;;;;;;;6.50;3.00;;;19.10;99.90;;;;;;5084350;28;20128;-57
2022/05/23 10:18:37;;;;;;;9.45;2.85;;;19.10;98.60;;;;;;5053094;28;20055;-55
2022/05/23 10:21:23;;;;;;;6.53;3.28;;;18.90;99.00;;;;;;5052269;28;20073;-59
2022/05/23 10:23:59;;;;;;;4.93;2.80;;;19.00;99.40;;;;;;5052759;28;20099;-56
2022/05/23 10:26:26;;;;;;;7.60;2.58;;;19.10;98.50;;;;;;5052336;28;20131;-57
2022/05/23 10:29:01;;;;;;;7.85;3.17;;;18.90;99.20;;;;;;5084532;28;20091;-56
2022/05/23 10:31:42;;;;;;;4.88;2.90;;;18.90;98.80;;;;;;5052677;28;20076;-54
2022/05/23 10:34:49;;;;;;;5.88;2.80;;;18.80;98.70;;;;;;5080954;28;20049;-55
2022/05/23 10:37:18;;;;;;;4.90;3.03;;;18.80;99.00;;;;;;5052255;28;20045;-55
2022/05/23 10:42:55;;;;;;;4.80;2.50;;;18.60;99.00;;;;;;5052275;28;20557;-56
2022/05/23 10:45:32;;;;;;;5.50;2.33;;;18.50;99.40;;;;;;5032956;28;20057;-57
2022/05/23 10:48:20;;;;;;;22.50;5.00;;;18.50;99.30;;;;;;5050794;28;20052;-58
2022/05/23 10:50:58;;;;;;;8.77;2.95;;;18.50;99.40;;;;;;5052635;28;20091;-57
2022/05/23 10:53:37;;;;;;;13.02;2.90;;;18.50;99.80;;;;;;5052275;28;20095;-57
2022/05/23 10:56:07;;;;;;;5.43;2.10;;;18.60;99.90;;;;;;5052054;28;20076;-57
2022/05/23 10:58:38;;;;;;;7.10;2.90;;;18.60;99.70;;;;;;5083451;28;20131;-57
2022/05/23 11:01:07;;;;;;;11.85;3.03;;;18.60;99.60;;;;;;5052380;28;20049;-57
2022/05/23 11:04:39;;;;;;;12.43;2.97;;;18.50;99.60;;;;;;5052287;28;20141;-58
2022/05/23 11:07:43;;;;;;;3.72;2.05;;;18.40;99.90;;;;;;5006362;28;20049;-57
2022/05/23 11:10:49;;;;;;;5.78;2.40;;;18.40;99.90;;;;;;5009470;28;20054;-56
2022/05/23 11:13:36;;;;;;;6.60;2.80;;;18.20;99.90;;;;;;5050993;28;20139;-56
2022/05/23 11:16:25;;;;;;;5.38;3.15;;;18.10;99.90;;;;;;5032228;28;20481;-56
2022/05/23 11:18:55;;;;;;;10.68;3.20;;;18.00;99.90;;;;;;5079465;28;20144;-57
2022/05/23 11:21:33;;;;;;;11.10;3.42;;;17.80;99.90;;;;;;5048887;28;20141;-57
2022/05/23 11:24:12;;;;;;;6.07;3.10;;;17.60;99.90;;;;;;5062734;28;20103;-57
2022/05/23 11:26:46;;;;;;;6.00;2.47;;;17.40;99.90;;;;;;5064138;28;20474;-53
2022/05/23 11:34:55;;;;;;;7.55;3.58;;;17.10;99.90;;;;;;5045052;28;20040;-57
2022/05/23 11:39:52;;;;;;;9.57;3.88;;;17.00;99.90;;;;;;5080189;28;20112;-56
2022/05/23 11:42:27;;;;;;;9.27;3.83;;;17.00;99.90;;;;;;5081108;28;20084;-56
2022/05/23 11:45:00;;;;;;;9.25;3.55;;;17.00;99.90;;;;;;5047579;28;20397;-58
2022/05/23 11:47:27;;;;;;;42.60;16.90;;;17.10;99.90;;;;;;5049072;28;20107;-55
2022/05/23 11:50:03;;;;;;;8.95;5.53;;;17.10;99.90;;;;;;5079924;28;20045;-58
2022/05/23 11:52:33;;;;;;;10.02;5.80;;;17.20;99.90;;;;;;5048874;28;20055;-55
2022/05/23 11:55:00;;;;;;;10.30;5.05;;;17.30;99.90;;;;;;5080098;28;20507;-55
2022/05/23 11:57:31;;;;;;;13.05;5.47;;;17.40;99.90;;;;;;5048838;28;20315;-57
2022/05/23 11:59:59;;;;;;;10.15;5.47;;;17.40;99.90;;;;;;5048474;28;20080;-56
2022/05/23 12:02:26;;;;;;;11.48;5.10;;;17.50;99.90;;;;;;5048383;28;20088;-57
2022/05/23 12:04:56;;;;;;;10.77;3.28;;;17.60;99.90;;;;;;5079667;28;20061;-57
2022/05/23 12:07:38;;;;;;;18.52;8.70;;;17.60;99.90;;;;;;5048245;28;20055;-56
2022/05/23 12:10:24;;;;;;;18.27;7.05;;;17.50;99.90;;;;;;5047806;28;20081;-57
2022/05/23 12:12:51;;;;;;;20.02;6.97;;;17.50;99.90;;;;;;5048329;28;20136;-55
2022/05/23 12:15:58;;;;;;;15.57;5.95;;;17.50;99.90;;;;;;5048418;28;20128;-55
2022/05/23 12:18:25;;;;;;;5.82;2.35;;;17.40;99.90;;;;;;4989787;28;20572;-56
2022/05/23 12:20:56;;;;;;;7.18;3.40;;;17.20;99.90;;;;;;5023419;28;20084;-55
2022/05/23 12:23:31;;;;;;;10.38;3.97;;;16.80;99.90;;;;;;5027329;28;20063;-56
2022/05/23 12:26:10;;;;;;;8.63;4.40;;;16.50;99.90;;;;;;5047564;28;20119;-56
2022/05/23 12:28:56;;;;;;;7.65;4.13;;;16.30;99.90;;;;;;5028254;28;20077;-55
2022/05/23 12:31:38;;;;;;;7.45;3.85;;;16.10;99.90;;;;;;5042932;28;20099;-56
2022/05/23 12:34:09;;;;;;;10.75;4.32;;;15.70;99.90;;;;;;5027831;28;20049;-52
2022/05/23 12:36:56;;;;;;;15.35;4.93;;;15.60;99.90;;;;;;5046673;28;20126;-56
2022/05/23 12:39:42;;;;;;;11.38;5.32;;;15.50;99.90;;;;;;5047638;28;20060;-56
2022/05/23 12:42:27;;;;;;;10.90;3.85;;;15.40;99.90;;;;;;5075745;28;20056;-55
2022/05/23 12:45:35;;;;;;;10.57;4.18;;;15.50;99.90;;;;;;5047373;28;20061;-53
2022/05/23 12:48:24;;;;;;;10.40;4.10;;;15.30;99.90;;;;;;5038639;28;20077;-54
2022/05/23 12:54:49;;;;;;;10.07;3.67;;;15.20;99.90;;;;;;5047727;28;20468;-56
2022/05/23 12:57:51;;;;;;;18.08;5.10;;;15.20;99.90;;;;;;5047408;28;20087;-53
2022/05/23 13:00:22;;;;;;;9.88;4.07;;;15.20;99.90;;;;;;5038418;28;20087;-54
2022/05/23 13:03:07;;;;;;;14.95;7.95;;;15.10;99.90;;;;;;5058098;28;20049;-55
2022/05/23 13:05:40;;;;;;;14.18;6.40;;;15.20;99.90;;;;;;5047217;28;20119;-55
2022/05/23 13:08:19;;;;;;;13.10;5.93;;;15.20;99.90;;;;;;5078794;28;20049;-54
2022/05/23 13:10:55;;;;;;;16.50;6.15;;;15.20;99.90;;;;;;5047150;28;20115;-54
2022/05/23 13:13:36;;;;;;;11.35;5.03;;;15.10;99.90;;;;;;5079379;28;20045;-54
2022/05/23 13:16:15;;;;;;;12.05;5.25;;;15.00;99.90;;;;;;5046624;28;20131;-54
2022/05/23 13:24:48;;;;;;;8.27;3.70;;;14.80;99.90;;;;;;5047085;28;20777;-53
2022/05/23 13:27:03;;;;;;;6.45;2.83;;;14.70;99.90;;;;;;5046479;28;20128;-55
2022/05/23 13:29:30;;;;;;;7.68;3.20;;;14.50;99.90;;;;;;5047132;28;20053;-53
2022/05/23 13:31:59;;;;;;;6.93;2.30;;;14.30;99.90;;;;;;5078287;28;20580;-54
2022/05/23 13:34:33;;;;;;;16.65;6.35;;;14.30;99.90;;;;;;5047053;28;20581;-53
2022/05/23 13:37:00;;;;;;;11.05;3.58;;;14.20;99.90;;;;;;5046312;28;20048;-55
2022/05/23 13:39:28;;;;;;;8.10;4.57;;;14.40;99.90;;;;;;5078690;28;20052;-55
2022/05/23 13:41:56;;;;;;;8.88;3.83;;;14.40;99.90;;;;;;5045889;28;20131;-57
2022/05/23 13:44:28;;;;;;;13.18;3.83;;;14.40;99.90;;;;;;5046652;28;20049;-55
2022/05/23 13:47:02;;;;;;;13.07;3.80;;;14.50;99.90;;;;;;5046199;28;20049;-56
2022/05/23 13:49:35;;;;;;;6.70;3.50;;;14.70;99.90;;;;;;5059224;28;20041;-55
2022/05/23 13:52:16;;;;;;;19.35;5.75;;;14.80;99.90;;;;;;5046099;28;20051;-54
2022/05/23 13:54:50;;;;;;;10.07;5.43;;;14.80;99.90;;;;;;5046688;28;20049;-55
2022/05/23 13:57:23;;;;;;;24.70;14.75;;;14.80;99.90;;;;;;5076980;28;20049;-56
2022/05/23 13:59:54;;;;;;;13.73;6.82;;;14.90;99.90;;;;;;5061461;28;20076;-53
2022/05/23 14:02:22;;;;;;;12.07;3.90;;;15.00;99.90;;;;;;5078592;28;20620;-54
2022/05/23 14:04:49;;;;;;;7.45;3.60;;;15.10;99.90;;;;;;5078501;28;20507;-55
2022/05/23 14:07:19;;;;;;;8.45;4.00;;;15.20;99.90;;;;;;5061521;28;20049;-55
2022/05/23 14:09:51;;;;;;;8.25;4.60;;;15.20;99.90;;;;;;5045649;28;20353;-53
2022/05/23 14:12:23;;;;;;;11.48;5.18;;;15.20;99.90;;;;;;5046252;28;20140;-53
2022/05/23 14:15:04;;;;;;;9.98;3.65;;;15.30;99.90;;;;;;5060651;28;20041;-57